Time;durP1;ratioP1;P1;durP2;ratioP2;P2;SDS_P1;SDS_P2;PMS_P1;PMS_P2;Temp;Humidity;BMP_temperature;BMP_pressure;BME280_temperature;BME280_humidity;BME280_pressure;Samples;Min_cycle;Max_cycle;Signal;HPM_P1;HPM_P2
2022/06/01 00:00:45;;;;;;;3.57;3.27;;;15.10;99.90;;;;;;5093651;28;20488;-58
2022/06/01 00:03:12;;;;;;;3.80;3.50;;;15.10;99.90;;;;;;5093886;28;20523;-58
2022/06/01 00:05:39;;;;;;;4.00;3.60;;;15.10;99.90;;;;;;5093579;28;20449;-58
2022/06/01 00:08:07;;;;;;;5.77;3.97;;;15.10;99.90;;;;;;5093597;28;20443;-58
2022/06/01 00:10:34;;;;;;;4.67;4.00;;;15.10;99.90;;;;;;5093430;28;20552;-58
2022/06/01 00:13:02;;;;;;;3.57;3.27;;;15.00;99.90;;;;;;5093662;28;20451;-58
2022/06/01 00:15:30;;;;;;;4.30;3.90;;;14.90;99.90;;;;;;5094654;28;20753;-58
2022/06/01 00:18:00;;;;;;;6.03;4.10;;;14.80;99.90;;;;;;5093733;28;20452;-58
2022/06/01 00:20:28;;;;;;;4.00;3.60;;;14.70;99.90;;;;;;5093361;28;20517;-58
2022/06/01 00:22:56;;;;;;;5.03;3.97;;;14.90;99.90;;;;;;5093784;28;20491;-58
2022/06/01 00:25:24;;;;;;;4.70;3.37;;;14.90;99.90;;;;;;5094294;28;20809;-58
2022/06/01 00:27:51;;;;;;;4.17;3.80;;;14.80;99.90;;;;;;5093363;28;20443;-58
2022/06/01 00:30:19;;;;;;;5.53;3.90;;;14.90;99.90;;;;;;5093473;28;20506;-58
2022/06/01 00:32:47;;;;;;;4.10;3.70;;;14.90;99.90;;;;;;5093250;28;20939;-58
2022/06/01 00:35:17;;;;;;;3.70;3.40;;;14.80;99.90;;;;;;5094424;28;20454;-58
2022/06/01 00:37:44;;;;;;;4.30;3.90;;;14.70;99.90;;;;;;5094422;28;20526;-58
2022/06/01 00:40:14;;;;;;;6.90;4.07;;;14.60;99.90;;;;;;5093489;28;20459;-59
2022/06/01 00:42:43;;;;;;;5.67;3.83;;;14.60;99.90;;;;;;5093584;28;20443;-58
2022/06/01 00:45:14;;;;;;;4.53;4.13;;;14.60;99.90;;;;;;5093806;28;20428;-58
2022/06/01 00:47:42;;;;;;;4.00;3.60;;;14.60;99.90;;;;;;5092636;28;20482;-59
2022/06/01 00:50:14;;;;;;;4.83;4.43;;;14.60;99.90;;;;;;5093631;28;20479;-58
2022/06/01 00:52:47;;;;;;;4.30;3.90;;;14.60;99.90;;;;;;5097048;28;20420;-58
2022/06/01 00:55:18;;;;;;;3.77;3.30;;;14.70;99.90;;;;;;5097190;28;20764;-59
2022/06/01 00:57:46;;;;;;;4.33;3.93;;;14.70;99.90;;;;;;5097180;28;20912;-59
2022/06/01 01:00:20;;;;;;;4.20;3.80;;;14.60;99.90;;;;;;5096968;28;20470;-59
2022/06/01 01:02:48;;;;;;;5.37;4.00;;;14.60;99.90;;;;;;5097172;28;20438;-57
2022/06/01 01:05:17;;;;;;;3.90;3.60;;;14.50;99.90;;;;;;5096769;28;20453;-58
2022/06/01 01:07:47;;;;;;;3.63;3.33;;;14.50;99.90;;;;;;5096703;28;20937;-59
2022/06/01 01:10:16;;;;;;;3.90;3.60;;;14.50;99.90;;;;;;5096602;28;20509;-58
2022/06/01 01:13:01;;;;;;;3.70;3.40;;;14.50;99.90;;;;;;5096951;28;20477;-58
2022/06/01 01:15:31;;;;;;;4.00;3.60;;;14.40;99.90;;;;;;5096905;28;20423;-59
2022/06/01 01:18:00;;;;;;;4.90;4.20;;;14.40;99.90;;;;;;5096898;28;20845;-59
2022/06/01 01:20:29;;;;;;;4.50;3.63;;;14.50;99.90;;;;;;5096769;28;20506;-59
2022/06/01 01:23:08;;;;;;;3.90;3.60;;;14.50;99.90;;;;;;5096446;28;20447;-59
2022/06/01 01:25:39;;;;;;;4.63;4.30;;;14.50;99.90;;;;;;5096257;28;20964;-59
2022/06/01 01:28:08;;;;;;;6.57;3.50;;;14.50;99.90;;;;;;5096610;28;20489;-59
2022/06/01 01:30:51;;;;;;;4.50;4.10;;;14.50;99.90;;;;;;5096187;28;20997;-59
2022/06/01 01:33:21;;;;;;;4.67;3.77;;;14.60;99.90;;;;;;5096258;28;20432;-59
2022/06/01 01:35:50;;;;;;;4.93;3.23;;;14.60;99.90;;;;;;5096210;28;20448;-59
2022/06/01 01:38:25;;;;;;;4.23;3.83;;;14.40;99.90;;;;;;5096368;28;20469;-59
2022/06/01 01:41:08;;;;;;;5.17;3.70;;;14.40;99.90;;;;;;5096441;28;20428;-59
2022/06/01 01:43:38;;;;;;;5.50;3.93;;;14.40;99.90;;;;;;5096180;28;20451;-59
2022/06/01 01:46:05;;;;;;;3.73;3.50;;;14.30;99.90;;;;;;5096152;28;20412;-58
2022/06/01 01:48:36;;;;;;;4.87;4.27;;;14.30;99.90;;;;;;5095831;28;20493;-59
2022/06/01 01:51:05;;;;;;;3.90;3.60;;;14.30;99.90;;;;;;5096169;28;20520;-59
2022/06/01 01:53:33;;;;;;;4.30;3.93;;;14.20;99.90;;;;;;5096008;28;20447;-58
2022/06/01 01:56:13;;;;;;;5.00;3.67;;;14.00;99.90;;;;;;5096040;28;20831;-59
2022/06/01 01:58:53;;;;;;;4.30;3.90;;;14.00;99.90;;;;;;5095808;28;20521;-59
2022/06/01 02:01:29;;;;;;;8.80;4.93;;;14.20;99.90;;;;;;5095757;28;20428;-59
2022/06/01 02:04:01;;;;;;;4.73;3.87;;;14.20;99.90;;;;;;5095593;28;20516;-59
2022/06/01 02:06:36;;;;;;;4.43;4.03;;;14.10;99.90;;;;;;5095675;28;20467;-59
2022/06/01 02:09:06;;;;;;;4.70;4.30;;;14.10;99.90;;;;;;5096016;28;20465;-59
2022/06/01 02:14:28;;;;;;;3.90;3.37;;;14.00;99.90;;;;;;5095900;28;20455;-59
2022/06/01 02:17:01;;;;;;;4.20;3.90;;;13.90;99.90;;;;;;5096463;28;20522;-59
2022/06/01 02:19:34;;;;;;;5.10;3.90;;;13.90;99.90;;;;;;5095644;28;20463;-59
2022/06/01 02:22:02;;;;;;;4.57;4.17;;;13.90;99.90;;;;;;5095391;28;20771;-59
2022/06/01 02:24:30;;;;;;;4.37;4.00;;;14.00;99.90;;;;;;5095573;28;20443;-58
2022/06/01 02:27:00;;;;;;;4.23;3.93;;;14.00;99.90;;;;;;5095415;28;20427;-59
2022/06/01 02:29:31;;;;;;;5.10;4.00;;;13.90;99.90;;;;;;5095449;28;20474;-59
2022/06/01 02:32:00;;;;;;;4.60;4.00;;;13.90;99.90;;;;;;5095258;28;20505;-58
2022/06/01 02:34:28;;;;;;;4.93;4.43;;;13.90;99.90;;;;;;5095101;28;20942;-59
2022/06/01 02:36:57;;;;;;;3.90;3.60;;;13.90;99.90;;;;;;5095028;28;20447;-58
2022/06/01 02:39:26;;;;;;;4.33;4.03;;;13.80;99.90;;;;;;5095209;28;20472;-59
2022/06/01 02:42:26;;;;;;;3.93;3.50;;;13.70;99.90;;;;;;5095250;28;20526;-59
2022/06/01 02:44:54;;;;;;;4.70;4.30;;;13.70;99.90;;;;;;5095424;28;20779;-58
2022/06/01 02:47:22;;;;;;;4.47;3.50;;;13.60;99.90;;;;;;5094917;28;20475;-59
2022/06/01 02:49:50;;;;;;;6.77;4.30;;;13.70;99.90;;;;;;5094852;28;20452;-58
2022/06/01 02:52:17;;;;;;;4.03;3.63;;;13.80;99.90;;;;;;5094917;28;20475;-59
2022/06/01 02:54:45;;;;;;;4.50;4.10;;;13.70;99.90;;;;;;5094933;28;20455;-59
2022/06/01 02:57:14;;;;;;;4.97;4.30;;;13.70;99.90;;;;;;5094788;28;20451;-59
2022/06/01 02:59:41;;;;;;;5.73;4.33;;;13.60;99.90;;;;;;5094834;28;20471;-58
2022/06/01 03:02:09;;;;;;;4.93;3.97;;;13.60;99.90;;;;;;5094746;28;20930;-59
2022/06/01 03:04:36;;;;;;;5.13;4.40;;;13.70;99.90;;;;;;5094547;28;20484;-59
2022/06/01 03:07:04;;;;;;;4.60;3.63;;;13.50;99.90;;;;;;5094730;28;20439;-59
2022/06/01 03:09:32;;;;;;;4.90;4.40;;;13.60;99.90;;;;;;5094357;28;20499;-59
2022/06/01 03:12:00;;;;;;;4.77;4.37;;;13.50;99.90;;;;;;5094255;28;20838;-59
2022/06/01 03:14:28;;;;;;;7.00;4.47;;;13.50;99.90;;;;;;5093978;28;20487;-59
2022/06/01 03:16:56;;;;;;;7.63;5.37;;;13.60;99.90;;;;;;5094580;28;20532;-59
2022/06/01 03:19:23;;;;;;;12.77;6.00;;;13.50;99.90;;;;;;5094533;28;20528;-59
2022/06/01 03:21:52;;;;;;;4.90;4.37;;;13.60;99.90;;;;;;5094719;28;20617;-59
2022/06/01 03:24:20;;;;;;;8.10;4.33;;;13.50;99.90;;;;;;5094544;28;20447;-59
2022/06/01 03:26:47;;;;;;;6.47;4.50;;;13.50;99.90;;;;;;5094052;28;20451;-59
2022/06/01 03:29:15;;;;;;;4.20;3.80;;;13.50;99.90;;;;;;5094033;28;21012;-59
2022/06/01 03:31:43;;;;;;;4.73;4.13;;;13.50;99.90;;;;;;5094007;28;20479;-59
2022/06/01 03:34:10;;;;;;;4.83;4.47;;;13.50;99.90;;;;;;5093999;28;20945;-59
2022/06/01 03:36:37;;;;;;;4.70;4.30;;;13.40;99.90;;;;;;5094289;28;20786;-58
2022/06/01 03:39:05;;;;;;;5.23;4.20;;;13.40;99.90;;;;;;5094168;28;20567;-58
2022/06/01 03:41:32;;;;;;;4.97;4.43;;;13.40;99.90;;;;;;5094263;28;20953;-59
2022/06/01 03:46:44;;;;;;;4.57;4.13;;;13.40;99.90;;;;;;5094045;28;20400;-59
2022/06/01 03:49:12;;;;;;;4.70;4.30;;;13.50;99.90;;;;;;5094073;28;20468;-59
2022/06/01 03:51:39;;;;;;;5.10;4.60;;;13.50;99.90;;;;;;5093997;28;20489;-59
2022/06/01 03:54:07;;;;;;;8.23;5.17;;;13.50;99.90;;;;;;5094023;28;20439;-59
2022/06/01 03:56:34;;;;;;;4.50;4.10;;;13.40;99.90;;;;;;5093600;28;20448;-59
2022/06/01 03:59:01;;;;;;;6.10;4.00;;;13.40;99.90;;;;;;5093573;28;21032;-59
2022/06/01 04:01:28;;;;;;;6.70;4.40;;;13.40;99.90;;;;;;5093921;28;20439;-59
2022/06/01 04:03:57;;;;;;;4.67;3.70;;;13.40;99.90;;;;;;5093543;28;20969;-59
2022/06/01 04:06:24;;;;;;;4.60;4.10;;;13.50;99.90;;;;;;5093529;28;20936;-58
2022/06/01 04:08:51;;;;;;;4.30;4.00;;;13.50;99.90;;;;;;5093713;28;20460;-58
2022/06/01 04:11:18;;;;;;;5.00;4.60;;;13.50;99.90;;;;;;5093771;28;20507;-58
2022/06/01 04:13:45;;;;;;;4.67;3.70;;;13.50;99.90;;;;;;5093773;28;20534;-59
2022/06/01 04:16:12;;;;;;;4.30;3.90;;;13.50;99.90;;;;;;5093483;28;20452;-58
2022/06/01 04:18:40;;;;;;;4.70;4.30;;;13.50;99.90;;;;;;5093349;28;20466;-59
2022/06/01 04:21:08;;;;;;;4.40;4.00;;;13.50;99.90;;;;;;5093394;28;20443;-59
2022/06/01 04:23:35;;;;;;;5.03;4.40;;;13.50;99.90;;;;;;5093449;28;20534;-57
2022/06/01 04:26:03;;;;;;;7.30;4.00;;;13.60;99.90;;;;;;5095330;28;20451;-58
2022/06/01 04:28:30;;;;;;;4.63;4.27;;;13.60;99.90;;;;;;5097840;28;20459;-59
2022/06/01 04:30:57;;;;;;;5.23;4.63;;;13.70;99.90;;;;;;5098303;28;20447;-60
2022/06/01 04:33:25;;;;;;;5.20;4.70;;;13.60;99.90;;;;;;5097437;28;20451;-58
2022/06/01 04:35:53;;;;;;;5.20;4.23;;;13.60;99.90;;;;;;5097666;28;20444;-59
2022/06/01 04:38:21;;;;;;;5.00;4.50;;;13.60;99.90;;;;;;5097258;28;20459;-58
2022/06/01 04:40:50;;;;;;;4.07;3.77;;;13.60;99.90;;;;;;5097183;28;20461;-57
2022/06/01 04:43:21;;;;;;;4.97;4.47;;;13.60;99.90;;;;;;5097441;28;20451;-56
2022/06/01 04:45:51;;;;;;;5.30;4.37;;;13.60;99.90;;;;;;5097541;28;20428;-57
2022/06/01 04:48:19;;;;;;;4.80;4.40;;;13.70;99.90;;;;;;5097134;28;20479;-58
2022/06/01 04:50:46;;;;;;;4.20;3.90;;;13.80;99.90;;;;;;5097350;28;20534;-57
2022/06/01 04:53:14;;;;;;;5.07;4.67;;;13.70;99.90;;;;;;5096905;28;20486;-57
2022/06/01 04:55:46;;;;;;;4.77;4.37;;;13.80;99.90;;;;;;5097071;28;20454;-58
2022/06/01 04:58:13;;;;;;;4.80;4.27;;;13.90;99.90;;;;;;5096880;28;20898;-57
2022/06/01 05:00:43;;;;;;;4.80;4.50;;;13.90;99.90;;;;;;5097164;28;20460;-58
2022/06/01 05:03:10;;;;;;;4.77;4.07;;;13.90;99.90;;;;;;5097120;28;20588;-58
2022/06/01 05:05:39;;;;;;;4.67;4.27;;;14.00;99.90;;;;;;5096692;28;20543;-58
2022/06/01 05:08:07;;;;;;;6.13;4.30;;;14.10;99.90;;;;;;5096890;28;20462;-58
2022/06/01 05:10:34;;;;;;;4.87;4.40;;;14.20;99.90;;;;;;5096905;28;20934;-58
2022/06/01 05:13:03;;;;;;;5.40;4.90;;;14.20;99.90;;;;;;5096664;28;20475;-58
2022/06/01 05:15:30;;;;;;;5.07;4.13;;;14.30;99.90;;;;;;5096968;28;20442;-57
2022/06/01 05:17:57;;;;;;;4.73;4.33;;;14.40;99.90;;;;;;5096984;28;20443;-58
2022/06/01 05:20:25;;;;;;;4.90;4.50;;;14.50;99.90;;;;;;5096693;28;20819;-58
2022/06/01 05:22:52;;;;;;;4.13;3.73;;;14.60;99.90;;;;;;5096322;28;20444;-58
2022/06/01 05:25:21;;;;;;;6.80;3.87;;;14.70;99.90;;;;;;5099525;28;20446;-58
2022/06/01 05:27:48;;;;;;;4.23;3.93;;;14.90;99.90;;;;;;5116689;28;20446;-59
2022/06/01 05:30:17;;;;;;;4.50;4.10;;;15.10;99.90;;;;;;5116417;28;20470;-58
2022/06/01 05:32:44;;;;;;;7.20;4.60;;;15.10;99.90;;;;;;5116313;28;20488;-59
2022/06/01 05:35:11;;;;;;;5.83;4.60;;;15.30;99.90;;;;;;5116967;28;20446;-58
2022/06/01 05:37:39;;;;;;;9.00;3.80;;;15.30;99.90;;;;;;5115493;28;21054;-58
2022/06/01 05:40:07;;;;;;;4.40;4.10;;;15.40;99.90;;;;;;5116430;28;20863;-59
2022/06/01 05:42:34;;;;;;;4.90;4.50;;;15.50;99.90;;;;;;5116346;28;20449;-59
2022/06/01 05:45:02;;;;;;;4.30;3.90;;;15.50;99.90;;;;;;5116811;28;20984;-59
2022/06/01 05:47:30;;;;;;;4.13;3.83;;;15.60;99.90;;;;;;5116259;28;20505;-59
2022/06/01 05:49:58;;;;;;;4.10;3.70;;;15.70;99.90;;;;;;5116520;28;20462;-60
2022/06/01 05:52:25;;;;;;;4.43;4.03;;;15.80;99.90;;;;;;5116022;28;20557;-59
2022/06/01 05:54:52;;;;;;;6.53;3.80;;;15.90;99.90;;;;;;5116050;28;20541;-59
2022/06/01 05:57:20;;;;;;;4.37;3.97;;;16.00;99.90;;;;;;5115891;28;20496;-59
2022/06/01 05:59:47;;;;;;;5.03;4.20;;;16.10;99.90;;;;;;5116036;28;20509;-59
2022/06/01 06:02:14;;;;;;;9.63;3.93;;;16.20;99.90;;;;;;5116846;28;20515;-59
2022/06/01 06:04:43;;;;;;;4.20;3.80;;;16.30;99.90;;;;;;5116146;28;20453;-59
2022/06/01 06:07:10;;;;;;;6.50;3.60;;;16.40;99.90;;;;;;5115920;28;20936;-59
2022/06/01 06:09:37;;;;;;;5.80;3.70;;;16.50;99.90;;;;;;5116408;28;20523;-59
2022/06/01 06:12:05;;;;;;;4.10;3.80;;;16.60;99.90;;;;;;5116491;28;20988;-59
2022/06/01 06:14:32;;;;;;;6.83;4.50;;;16.70;99.90;;;;;;5116211;28;20865;-59
2022/06/01 06:16:59;;;;;;;4.20;3.73;;;16.70;99.90;;;;;;5116443;28;20988;-59
2022/06/01 06:19:27;;;;;;;8.10;3.70;;;16.80;99.90;;;;;;5115922;28;20470;-58
2022/06/01 06:21:55;;;;;;;4.80;3.80;;;16.80;99.90;;;;;;5115869;28;20434;-59
2022/06/01 06:24:23;;;;;;;6.20;3.80;;;16.90;99.90;;;;;;5115602;28;20529;-56
2022/06/01 06:26:50;;;;;;;7.23;3.50;;;17.00;99.90;;;;;;5115312;28;20443;-56
2022/06/01 06:29:20;;;;;;;6.30;3.73;;;17.10;99.90;;;;;;5115318;28;20480;-58
2022/06/01 06:31:47;;;;;;;4.30;3.90;;;17.20;99.90;;;;;;5115772;28;20449;-58
2022/06/01 06:34:15;;;;;;;4.40;4.00;;;17.30;99.90;;;;;;5115652;28;20802;-59
2022/06/01 06:36:44;;;;;;;8.10;3.57;;;17.40;99.90;;;;;;5115267;28;20996;-59
2022/06/01 06:39:13;;;;;;;4.17;3.77;;;17.40;99.90;;;;;;5115167;28;20462;-59
2022/06/01 06:41:40;;;;;;;3.67;3.37;;;17.50;99.90;;;;;;5115395;28;20453;-59
2022/06/01 06:44:07;;;;;;;4.57;3.77;;;17.50;99.90;;;;;;5115294;28;20459;-59
2022/06/01 06:46:35;;;;;;;3.27;3.00;;;17.60;99.90;;;;;;5115784;28;20442;-58
2022/06/01 06:49:02;;;;;;;6.33;4.10;;;17.70;99.90;;;;;;5114713;28;20489;-59
2022/06/01 06:51:30;;;;;;;3.13;2.93;;;;;;;;;;5115056;28;20463;-59
2022/06/01 06:53:57;;;;;;;4.40;3.73;;;17.90;99.90;;;;;;5115147;28;20748;-59
2022/06/01 06:56:30;;;;;;;4.63;3.70;;;18.00;99.90;;;;;;5114998;28;20434;-59
2022/06/01 06:58:57;;;;;;;4.13;3.70;;;18.00;99.90;;;;;;5115106;28;20474;-59
2022/06/01 07:01:25;;;;;;;4.00;3.60;;;18.10;99.90;;;;;;5114750;28;20489;-58
2022/06/01 07:03:52;;;;;;;3.30;2.87;;;18.30;99.90;;;;;;5114640;28;20450;-59
2022/06/01 07:06:19;;;;;;;2.70;2.50;;;18.60;99.90;;;;;;5114895;28;20471;-59
2022/06/01 07:08:48;;;;;;;4.53;3.20;;;19.20;99.90;;;;;;5115190;28;20467;-59
2022/06/01 07:11:17;;;;;;;3.40;3.20;;;19.90;99.90;;;;;;5114767;28;20451;-58
2022/06/01 07:13:47;;;;;;;3.83;2.83;;;20.60;99.90;;;;;;5114732;28;20478;-59
2022/06/01 07:16:16;;;;;;;4.67;3.27;;;21.20;99.90;;;;;;5114387;28;20813;-59
2022/06/01 07:18:45;;;;;;;2.67;2.47;;;21.20;99.30;;;;;;5114425;28;20490;-59
2022/06/01 07:21:13;;;;;;;5.33;3.00;;;21.70;98.60;;;;;;5114710;28;20446;-59
2022/06/01 07:23:40;;;;;;;7.53;4.53;;;21.90;97.80;;;;;;5114399;28;20447;-59
2022/06/01 07:26:11;;;;;;;4.17;3.10;;;22.20;97.20;;;;;;5114470;28;20443;-59
2022/06/01 07:28:39;;;;;;;4.50;3.03;;;22.90;95.70;;;;;;5114275;28;20968;-58
2022/06/01 07:31:08;;;;;;;3.00;2.70;;;;;;;;;;5114630;28;20446;-59
2022/06/01 07:33:36;;;;;;;2.77;2.57;;;23.30;92.80;;;;;;5114318;28;20481;-59
2022/06/01 07:36:06;;;;;;;4.87;2.90;;;23.80;91.80;;;;;;5114077;28;20447;-59
2022/06/01 07:44:10;;;;;;;2.60;2.40;;;24.20;90.40;;;;;;5114109;28;20433;-59
2022/06/01 07:46:39;;;;;;;3.50;3.20;;;24.40;89.60;;;;;;5113965;28;20446;-58
2022/06/01 07:49:08;;;;;;;3.77;2.67;;;24.50;90.10;;;;;;5114120;28;20845;-59
2022/06/01 07:51:36;;;;;;;2.93;2.63;;;25.10;84.70;;;;;;5113982;28;20495;-59
2022/06/01 07:54:03;;;;;;;3.43;2.20;;;25.00;84.40;;;;;;5114001;28;20527;-59
2022/06/01 07:56:30;;;;;;;2.80;2.37;;;25.30;82.10;;;;;;5113682;28;20447;-60
2022/06/01 07:58:57;;;;;;;4.23;3.00;;;25.00;79.60;;;;;;5114018;28;20462;-59
2022/06/01 08:01:26;;;;;;;3.10;2.53;;;25.70;79.10;;;;;;5113697;28;20495;-59
2022/06/01 08:03:56;;;;;;;4.60;2.80;;;25.90;77.70;;;;;;5113793;28;20849;-59
2022/06/01 08:06:23;;;;;;;7.20;2.23;;;26.10;74.50;;;;;;5114041;28;20473;-59
2022/06/01 08:08:50;;;;;;;2.93;2.43;;;26.10;73.60;;;;;;5113970;28;20458;-59
2022/06/01 08:11:18;;;;;;;3.07;2.50;;;25.60;72.80;;;;;;5113498;28;20845;-58
2022/06/01 08:13:44;;;;;;;5.10;2.33;;;26.30;72.00;;;;;;5113959;28;20478;-58
2022/06/01 08:16:12;;;;;;;2.90;2.33;;;26.10;70.40;;;;;;5113817;28;20488;-58
2022/06/01 08:18:39;;;;;;;5.37;2.60;;;26.00;70.50;;;;;;5113998;28;20850;-58
2022/06/01 08:21:08;;;;;;;3.40;1.90;;;26.40;69.00;;;;;;5113540;28;20453;-58
2022/06/01 08:23:35;;;;;;;2.70;2.43;;;25.90;63.20;;;;;;5113681;28;20450;-58
2022/06/01 08:26:02;;;;;;;2.57;2.00;;;26.00;59.80;;;;;;5113438;28;20928;-59
2022/06/01 08:28:29;;;;;;;4.27;3.87;;;26.30;59.70;;;;;;5113540;28;21034;-59
2022/06/01 08:30:57;;;;;;;6.40;2.53;;;26.40;58.70;;;;;;5113769;28;20801;-60
2022/06/01 08:33:24;;;;;;;4.63;2.30;;;26.40;58.10;;;;;;5113539;28;20470;-60
2022/06/01 08:35:52;;;;;;;2.53;2.33;;;25.90;58.70;;;;;;5113481;28;20484;-60
2022/06/01 08:38:21;;;;;;;2.90;2.20;;;26.40;61.80;;;;;;5113696;28;20450;-60
2022/06/01 08:40:54;;;;;;;5.23;2.93;;;26.30;59.80;;;;;;5113325;28;20466;-60
2022/06/01 08:43:28;;;;;;;4.60;2.20;;;26.00;59.20;;;;;;5113615;28;20453;-60
2022/06/01 08:45:59;;;;;;;2.37;2.10;;;25.90;59.10;;;;;;5113540;28;20427;-59
2022/06/01 08:48:32;;;;;;;2.73;2.50;;;26.30;60.20;;;;;;5113795;28;20506;-58
2022/06/01 08:50:59;;;;;;;4.70;2.63;;;26.50;59.00;;;;;;5113315;28;20433;-58
2022/06/01 08:53:28;;;;;;;2.77;2.57;;;26.40;59.60;;;;;;5113247;28;20485;-59
2022/06/01 08:56:00;;;;;;;2.80;2.60;;;26.20;59.40;;;;;;5113318;28;20918;-57
2022/06/01 08:58:34;;;;;;;3.03;2.73;;;26.30;58.50;;;;;;5113314;28;20565;-59
2022/06/01 09:01:11;;;;;;;6.00;2.70;;;27.20;59.10;;;;;;5113044;28;20510;-59
2022/06/01 09:03:47;;;;;;;3.93;2.60;;;27.30;59.80;;;;;;5113267;28;20911;-59
2022/06/01 09:06:20;;;;;;;4.83;2.80;;;27.90;62.30;;;;;;5113492;28;20510;-60
2022/06/01 09:08:54;;;;;;;4.40;2.70;;;27.30;61.80;;;;;;5113319;28;20466;-60
2022/06/01 09:11:30;;;;;;;3.93;2.50;;;26.90;62.80;;;;;;5114337;28;20529;-60
2022/06/01 09:14:03;;;;;;;4.43;3.80;;;25.90;63.10;;;;;;5116825;28;20508;-58
2022/06/01 09:16:33;;;;;;;4.67;3.13;;;25.90;66.60;;;;;;5117040;28;20430;-58
2022/06/01 09:19:01;;;;;;;4.83;2.77;;;25.20;63.10;;;;;;5117348;28;20496;-58
2022/06/01 09:24:19;;;;;;;3.23;2.40;;;25.30;66.90;;;;;;5117054;28;20402;-58
2022/06/01 09:26:52;;;;;;;5.53;2.33;;;24.90;65.30;;;;;;5100821;28;20542;-58
2022/06/01 09:29:25;;;;;;;4.43;2.30;;;26.10;68.10;;;;;;5096194;28;21047;-58
2022/06/01 09:31:58;;;;;;;3.63;2.70;;;27.00;63.10;;;;;;5096078;28;20602;-58
2022/06/01 09:34:35;;;;;;;2.93;2.53;;;26.90;62.70;;;;;;5096450;28;21023;-59
2022/06/01 09:37:10;;;;;;;6.70;2.40;;;27.00;61.90;;;;;;5096416;28;20436;-59
2022/06/01 09:39:50;;;;;;;3.23;2.70;;;26.90;62.10;;;;;;5096012;28;20995;-59
2022/06/01 09:42:26;;;;;;;3.73;2.73;;;26.10;61.50;;;;;;5095978;28;20428;-58
2022/06/01 09:44:55;;;;;;;3.20;2.40;;;26.10;62.00;;;;;;5095901;28;20450;-59
2022/06/01 09:47:31;;;;;;;3.53;2.47;;;25.30;62.00;;;;;;5096159;28;20576;-59
2022/06/01 09:50:00;;;;;;;3.00;2.70;;;24.70;62.00;;;;;;5095943;28;20455;-59
2022/06/01 09:52:32;;;;;;;2.73;2.50;;;24.50;61.80;;;;;;5096066;28;20478;-58
2022/06/01 09:55:15;;;;;;;6.40;2.10;;;24.70;64.00;;;;;;5096541;28;20483;-58
2022/06/01 09:57:43;;;;;;;2.97;2.00;;;25.80;62.90;;;;;;5116084;28;20423;-59
2022/06/01 10:06:14;;;;;;;1.90;1.80;;;25.30;58.60;;;;;;5116237;28;20803;-59
2022/06/01 10:08:45;;;;;;;3.87;2.13;;;25.20;60.10;;;;;;5115971;28;20490;-59
2022/06/01 10:11:29;;;;;;;7.40;2.60;;;25.80;58.80;;;;;;5116061;28;20431;-59
2022/06/01 10:14:05;;;;;;;2.10;2.00;;;26.50;57.20;;;;;;5115531;28;20490;-60
2022/06/01 10:16:42;;;;;;;2.70;1.93;;;26.20;55.30;;;;;;5116016;28;20419;-59
2022/06/01 10:19:13;;;;;;;2.07;1.87;;;25.50;54.00;;;;;;5115587;28;20991;-59
2022/06/01 10:21:50;;;;;;;2.33;1.83;;;24.90;55.50;;;;;;5115789;28;20480;-57
2022/06/01 10:24:23;;;;;;;2.20;2.00;;;24.60;55.60;;;;;;5115797;28;20486;-58
2022/06/01 10:26:58;;;;;;;2.00;1.73;;;24.40;55.50;;;;;;5115859;28;20832;-58
2022/06/01 10:29:30;;;;;;;1.87;1.77;;;25.00;55.70;;;;;;5115372;28;20473;-58
2022/06/01 10:32:01;;;;;;;2.30;2.10;;;25.80;54.80;;;;;;5115254;28;20525;-59
2022/06/01 10:34:36;;;;;;;2.40;1.73;;;25.80;54.70;;;;;;5115274;28;20462;-58
2022/06/01 10:37:10;;;;;;;2.57;1.77;;;25.90;52.90;;;;;;5115201;28;20426;-59
2022/06/01 10:39:43;;;;;;;2.10;1.90;;;26.90;53.20;;;;;;5115135;28;20827;-59
2022/06/01 10:42:18;;;;;;;2.37;1.70;;;27.10;51.50;;;;;;5115408;28;20514;-61
2022/06/01 10:44:52;;;;;;;2.80;1.50;;;28.10;52.10;;;;;;5115228;28;21035;-59
2022/06/01 10:47:30;;;;;;;3.27;1.77;;;27.50;49.30;;;;;;5115086;28;20505;-59
2022/06/01 10:50:05;;;;;;;2.00;1.77;;;26.40;50.10;;;;;;5115076;28;20466;-59
2022/06/01 10:52:36;;;;;;;3.67;2.03;;;25.90;51.50;;;;;;5114845;28;20465;-59
2022/06/01 10:55:13;;;;;;;3.83;1.60;;;25.80;51.20;;;;;;5114388;28;21063;-59
2022/06/01 10:57:45;;;;;;;2.60;1.97;;;25.50;53.10;;;;;;5114821;28;20940;-59
2022/06/01 11:00:16;;;;;;;3.53;2.00;;;25.00;50.20;;;;;;5114911;28;20481;-59
2022/06/01 11:03:04;;;;;;;2.53;2.10;;;25.20;51.00;;;;;;5114880;28;20470;-59
2022/06/01 11:05:41;;;;;;;2.07;1.87;;;26.00;50.30;;;;;;5114828;28;20423;-59
2022/06/01 11:08:17;;;;;;;1.70;1.60;;;26.90;48.90;;;;;;5115503;28;20434;-58
2022/06/01 11:10:53;;;;;;;1.90;1.70;;;26.80;48.00;;;;;;5114900;28;20425;-59
2022/06/01 11:13:43;;;;;;;2.90;1.90;;;26.40;47.70;;;;;;5115044;28;20577;-58
2022/06/01 11:16:22;;;;;;;2.10;1.63;;;26.30;48.60;;;;;;5114399;28;20431;-59
2022/06/01 11:19:00;;;;;;;2.57;1.90;;;26.00;49.40;;;;;;5114623;28;20477;-59
2022/06/01 11:21:34;;;;;;;2.23;1.90;;;26.20;48.50;;;;;;5114434;28;20525;-58
2022/06/01 11:24:22;;;;;;;3.60;2.13;;;25.80;49.50;;;;;;5114384;28;20455;-58
2022/06/01 11:27:03;;;;;;;3.87;2.03;;;26.40;49.30;;;;;;5098127;28;20454;-59
2022/06/01 11:29:46;;;;;;;4.30;2.10;;;25.90;49.70;;;;;;5094159;28;20550;-58
2022/06/01 11:32:18;;;;;;;3.60;1.90;;;25.60;48.80;;;;;;5093887;28;20485;-59
2022/06/01 11:34:53;;;;;;;2.03;1.93;;;25.50;49.10;;;;;;5093287;28;20506;-59
2022/06/01 11:37:27;;;;;;;4.03;1.70;;;25.70;49.90;;;;;;5094046;28;20431;-58
2022/06/01 11:39:58;;;;;;;3.90;1.90;;;26.10;51.00;;;;;;5093779;28;20448;-59
2022/06/01 11:42:29;;;;;;;3.67;1.90;;;26.70;48.70;;;;;;5093705;28;20448;-58
2022/06/01 11:45:04;;;;;;;2.27;1.80;;;26.50;48.60;;;;;;5094146;28;20436;-58
2022/06/01 11:47:37;;;;;;;1.80;1.70;;;26.60;48.20;;;;;;5093864;28;20509;-59
2022/06/01 11:50:19;;;;;;;2.43;1.97;;;26.30;47.40;;;;;;5093763;28;20467;-59
2022/06/01 11:52:54;;;;;;;2.30;2.10;;;26.00;48.30;;;;;;5093548;28;20447;-58
2022/06/01 11:55:31;;;;;;;2.20;2.00;;;26.30;49.50;;;;;;5096417;28;20462;-58
2022/06/01 11:58:09;;;;;;;1.83;1.73;;;26.00;47.40;;;;;;5114307;28;20453;-59
2022/06/01 12:00:51;;;;;;;1.97;1.60;;;26.40;49.20;;;;;;5114202;28;20505;-59
2022/06/01 12:03:41;;;;;;;3.90;2.10;;;26.10;48.30;;;;;;5113757;28;20431;-58
2022/06/01 12:06:13;;;;;;;1.80;1.70;;;25.40;48.40;;;;;;5113686;28;20972;-58
2022/06/01 12:08:46;;;;;;;2.20;2.00;;;25.30;49.90;;;;;;5113568;28;20467;-58
2022/06/01 12:11:35;;;;;;;2.20;2.00;;;25.20;50.40;;;;;;5114091;28;20413;-58
2022/06/01 12:14:22;;;;;;;1.93;1.70;;;24.70;49.60;;;;;;5113394;28;20508;-58
2022/06/01 12:17:34;;;;;;;5.33;2.23;;;24.20;49.80;;;;;;5113529;28;20446;-58
2022/06/01 12:20:37;;;;;;;3.30;2.50;;;24.30;50.40;;;;;;5114253;28;20474;-58
2022/06/01 12:29:52;;;;;;;2.40;2.20;;;24.70;51.80;;;;;;5113612;28;20486;-58
2022/06/01 12:32:20;;;;;;;2.07;1.87;;;25.60;50.00;;;;;;5113365;28;20446;-59
2022/06/01 12:35:01;;;;;;;2.30;2.10;;;25.90;50.70;;;;;;5113635;28;20981;-59
2022/06/01 12:37:37;;;;;;;2.10;1.97;;;25.50;49.90;;;;;;5113553;28;20403;-59
2022/06/01 12:40:07;;;;;;;2.90;2.17;;;25.30;50.80;;;;;;5113717;28;20473;-59
2022/06/01 12:42:38;;;;;;;2.20;2.00;;;25.10;50.80;;;;;;5114270;28;20462;-59
2022/06/01 12:45:12;;;;;;;2.00;1.90;;;24.90;50.90;;;;;;5113807;28;20474;-59
2022/06/01 12:47:49;;;;;;;2.33;1.90;;;24.80;51.60;;;;;;5116325;28;20497;-58
2022/06/01 12:50:21;;;;;;;2.23;2.03;;;24.70;50.90;;;;;;5117134;28;20462;-59
2022/06/01 12:52:48;;;;;;;2.10;1.90;;;24.50;51.50;;;;;;5117253;28;20484;-59
2022/06/01 12:55:21;;;;;;;2.20;1.87;;;24.40;51.40;;;;;;5117344;28;20521;-59
2022/06/01 12:57:51;;;;;;;3.97;2.27;;;24.50;52.00;;;;;;5117477;28;20443;-59
2022/06/01 13:00:21;;;;;;;2.57;2.13;;;24.40;52.10;;;;;;5117102;28;20463;-59
2022/06/01 13:02:49;;;;;;;2.50;2.30;;;25.20;52.50;;;;;;5117935;28;20462;-59
2022/06/01 13:05:23;;;;;;;8.50;2.20;;;25.20;52.70;;;;;;5117904;28;20525;-58
2022/06/01 13:07:54;;;;;;;2.77;2.17;;;25.20;52.90;;;;;;5117596;28;20427;-58
2022/06/01 13:10:25;;;;;;;2.10;1.83;;;25.60;53.00;;;;;;5116949;28;20493;-58
2022/06/01 13:13:03;;;;;;;4.93;2.07;;;25.20;52.50;;;;;;5117051;28;20435;-58
2022/06/01 13:15:30;;;;;;;2.30;1.93;;;24.80;51.80;;;;;;5116678;28;20466;-58
2022/06/01 13:18:00;;;;;;;4.97;2.43;;;25.30;53.80;;;;;;5116508;28;20495;-58
2022/06/01 13:20:37;;;;;;;2.80;2.53;;;25.50;52.70;;;;;;5116582;28;20828;-58
2022/06/01 13:23:07;;;;;;;6.13;2.57;;;25.20;53.50;;;;;;5117409;28;20474;-58
2022/06/01 13:25:36;;;;;;;3.00;2.30;;;24.80;54.30;;;;;;5116823;28;20525;-58
2022/06/01 13:28:04;;;;;;;2.60;2.40;;;24.50;54.40;;;;;;5116847;28;20844;-58
2022/06/01 13:30:34;;;;;;;2.87;2.63;;;24.70;54.60;;;;;;5116468;28;20470;-58
2022/06/01 13:33:05;;;;;;;6.30;2.50;;;24.90;55.60;;;;;;5116298;28;20453;-58